createdAt,value
2018-12-26T00:02:25.182Z,44.90
2018-12-26T00:04:55.446Z,49.37
2018-12-26T00:07:25.629Z,68.63
2018-12-26T00:09:55.958Z,105.97
2018-12-26T00:12:26.235Z,85.77
2018-12-26T00:14:56.693Z,85.37
2018-12-26T00:17:27.078Z,72.57
2018-12-26T00:19:57.324Z,83.40
2018-12-26T00:22:27.717Z,89.87
2018-12-26T00:24:57.965Z,58.30
2018-12-26T00:27:28.230Z,58.63
2018-12-26T00:29:58.500Z,76.43
2018-12-26T00:32:28.777Z,61.20
2018-12-26T00:34:58.982Z,68.40
2018-12-26T00:37:29.206Z,75.47
2018-12-26T00:39:59.523Z,80.67
2018-12-26T00:42:29.893Z,55.93
2018-12-26T00:45:00.176Z,67.27
2018-12-26T00:47:30.385Z,65.80
2018-12-26T00:50:00.678Z,81.97
2018-12-26T00:52:30.887Z,64.53
2018-12-26T00:55:01.155Z,62.67
2018-12-26T00:57:31.413Z,62.97
2018-12-26T01:00:01.664Z,69.60
2018-12-26T01:02:31.948Z,63.97
2018-12-26T01:05:02.176Z,78.77
2018-12-26T01:07:32.350Z,76.87
2018-12-26T01:10:02.703Z,62.37
2018-12-26T01:12:32.964Z,76.77
2018-12-26T01:15:03.256Z,78.73
2018-12-26T01:17:33.445Z,63.70
2018-12-26T01:20:03.901Z,91.03
2018-12-26T01:22:34.162Z,103.43
2018-12-26T01:25:04.401Z,79.77
2018-12-26T01:27:34.544Z,67.50
2018-12-26T01:30:04.932Z,63.90
2018-12-26T01:32:35.394Z,69.23
2018-12-26T01:35:05.846Z,66.67
2018-12-26T01:37:36.093Z,65.97
2018-12-26T01:40:06.365Z,63.27
2018-12-26T01:42:36.651Z,81.53
2018-12-26T01:45:07.027Z,70.77
2018-12-26T01:47:37.329Z,129.70
2018-12-26T01:50:07.665Z,83.20
2018-12-26T01:52:37.957Z,75.07
2018-12-26T01:55:08.409Z,68.47
2018-12-26T01:57:38.555Z,85.80
2018-12-26T02:00:09.017Z,59.60
2018-12-26T02:02:39.289Z,78.00
2018-12-26T02:05:09.555Z,61.70
2018-12-26T02:07:39.745Z,77.77
2018-12-26T02:10:10.113Z,68.63
2018-12-26T02:12:40.317Z,64.33
2018-12-26T02:15:10.657Z,63.00
2018-12-26T02:17:41.115Z,66.10
2018-12-26T02:20:11.349Z,76.43
2018-12-26T02:22:41.561Z,61.23
2018-12-26T02:25:12.109Z,67.13
2018-12-26T02:27:42.452Z,57.13
2018-12-26T02:30:12.661Z,48.73
2018-12-26T02:32:42.947Z,55.83
2018-12-26T02:35:13.236Z,56.70
2018-12-26T02:37:43.480Z,59.27
2018-12-26T02:40:13.903Z,63.83
2018-12-26T02:42:44.194Z,51.73
2018-12-26T02:45:14.395Z,53.60
2018-12-26T02:47:44.714Z,65.00
2018-12-26T02:50:14.959Z,57.30
2018-12-26T02:52:45.285Z,58.00
2018-12-26T02:55:15.568Z,53.57
2018-12-26T02:57:45.861Z,79.03
2018-12-26T03:00:16.167Z,56.27
2018-12-26T03:02:47.477Z,57.60
2018-12-26T03:05:17.747Z,57.33
2018-12-26T03:07:48.074Z,69.27
2018-12-26T03:10:18.425Z,227.87
2018-12-26T03:12:48.659Z,55.17
2018-12-26T03:15:18.954Z,83.23
2018-12-26T03:17:49.208Z,53.57
2018-12-26T03:20:19.720Z,59.27
2018-12-26T03:22:49.976Z,48.57
2018-12-26T03:25:20.494Z,56.30
2018-12-26T03:27:50.815Z,55.97
2018-12-26T03:30:21.094Z,56.83
2018-12-26T03:32:51.217Z,44.50
2018-12-26T03:35:21.447Z,63.53
2018-12-26T03:37:51.729Z,49.97
2018-12-26T03:40:22.198Z,45.57
2018-12-26T03:42:52.663Z,86.13
2018-12-26T03:45:23.584Z,78.03
2018-12-26T03:47:54.409Z,42.70
2018-12-26T03:50:24.843Z,48.37
2018-12-26T03:52:55.082Z,52.20
2018-12-26T03:55:25.483Z,46.93
2018-12-26T03:57:55.672Z,54.40
2018-12-26T04:00:26.049Z,40.97
2018-12-26T04:02:56.353Z,44.10
2018-12-26T04:05:26.673Z,43.93
2018-12-26T04:07:57.060Z,129.80
2018-12-26T04:10:27.447Z,124.43
2018-12-26T04:12:57.680Z,52.33
2018-12-26T04:15:28.094Z,72.63
2018-12-26T04:17:58.421Z,48.47
2018-12-26T04:20:28.830Z,51.47
2018-12-26T04:22:59.153Z,95.37
2018-12-26T04:25:29.680Z,207.43
2018-12-26T04:28:00.037Z,94.73
2018-12-26T04:30:30.255Z,162.87
2018-12-26T04:33:00.579Z,109.80
2018-12-26T04:35:30.824Z,151.87
2018-12-26T04:38:01.013Z,202.40
2018-12-26T04:40:31.312Z,101.37
2018-12-26T04:43:01.587Z,112.13
2018-12-26T04:45:31.780Z,73.10
2018-12-26T04:48:02.062Z,70.90
2018-12-26T04:50:32.643Z,59.43
2018-12-26T04:53:02.897Z,42.87
2018-12-26T04:55:33.359Z,61.73
2018-12-26T04:58:03.578Z,61.97
2018-12-26T05:00:33.822Z,53.47
2018-12-26T05:03:04.144Z,138.07
2018-12-26T05:05:34.349Z,70.83
2018-12-26T05:08:04.604Z,106.67
2018-12-26T05:10:34.880Z,106.03
2018-12-26T05:13:05.136Z,65.60
2018-12-26T05:15:35.316Z,73.07
2018-12-26T05:18:05.968Z,105.83
2018-12-26T05:20:36.315Z,44.20
2018-12-26T05:23:06.556Z,54.63
2018-12-26T05:25:36.934Z,80.43
2018-12-26T05:28:07.215Z,40.23
2018-12-26T05:30:37.565Z,48.13
2018-12-26T05:33:07.887Z,44.70
2018-12-26T05:35:38.193Z,40.77
2018-12-26T05:38:08.550Z,41.30
2018-12-26T05:40:38.867Z,169.07
2018-12-26T05:43:09.198Z,83.67
2018-12-26T05:45:39.488Z,230.40
2018-12-26T05:48:09.874Z,241.60
2018-12-26T05:50:40.087Z,128.57
2018-12-26T05:53:10.345Z,186.90
2018-12-26T05:55:40.637Z,123.80
2018-12-26T05:58:11.038Z,163.87
2018-12-26T06:00:41.382Z,69.63
2018-12-26T06:03:11.721Z,154.23
2018-12-26T06:05:41.967Z,126.80
2018-12-26T06:08:12.693Z,130.57
2018-12-26T06:10:42.949Z,116.93
2018-12-26T06:13:13.232Z,86.57
2018-12-26T06:15:43.418Z,76.67
2018-12-26T06:18:13.755Z,128.87
2018-12-26T06:20:43.946Z,63.40
2018-12-26T06:23:14.197Z,169.13
2018-12-26T06:25:44.597Z,142.47
2018-12-26T06:28:15.368Z,92.63
2018-12-26T06:30:45.656Z,216.10
2018-12-26T06:33:16.132Z,133.97
2018-12-26T06:35:46.405Z,122.27
2018-12-26T06:38:17.405Z,144.23
2018-12-26T06:40:49.879Z,73.97
2018-12-26T06:43:20.457Z,147.80
2018-12-26T06:45:50.741Z,148.87
2018-12-26T06:48:20.997Z,162.60
2018-12-26T06:50:51.233Z,228.57
2018-12-26T06:53:21.508Z,177.37
2018-12-26T06:55:51.849Z,208.13
2018-12-26T06:58:22.125Z,211.17
2018-12-26T07:00:52.358Z,144.33
2018-12-26T07:03:22.654Z,179.77
2018-12-26T07:05:52.952Z,250.27
2018-12-26T07:08:23.208Z,189.67
2018-12-26T07:10:53.521Z,227.40
2018-12-26T07:13:26.595Z,185.50
2018-12-26T07:15:57.001Z,182.03
2018-12-26T07:18:27.294Z,149.43
2018-12-26T07:20:57.525Z,123.27
2018-12-26T07:23:27.779Z,151.47
2018-12-26T07:25:58.048Z,177.53
2018-12-26T07:28:28.389Z,171.60
2018-12-26T07:30:58.777Z,230.13
2018-12-26T07:33:29.113Z,118.53
2018-12-26T07:35:59.705Z,124.10
2018-12-26T07:38:31.511Z,199.03
2018-12-26T07:41:01.717Z,98.03
2018-12-26T07:43:31.981Z,194.87
2018-12-26T07:46:02.829Z,262.23
2018-12-26T07:48:33.134Z,114.80
2018-12-26T07:51:04.413Z,120.67
2018-12-26T07:53:34.556Z,117.20
2018-12-26T07:56:04.800Z,187.83
2018-12-26T07:58:35.023Z,202.13
2018-12-26T08:01:05.563Z,206.83
2018-12-26T08:03:35.778Z,112.63
2018-12-26T08:06:05.926Z,113.27
2018-12-26T08:08:36.290Z,276.77
2018-12-26T08:11:06.541Z,165.20
2018-12-26T08:13:36.785Z,186.67
2018-12-26T08:16:07.150Z,192.97
2018-12-26T08:18:37.460Z,224.43
2018-12-26T08:21:07.712Z,101.90
2018-12-26T08:23:37.914Z,152.73
2018-12-26T08:26:08.200Z,132.50
2018-12-26T08:28:38.506Z,88.37
2018-12-26T08:31:08.773Z,207.37
2018-12-26T08:33:39.110Z,231.43
2018-12-26T08:36:09.679Z,180.73
2018-12-26T08:38:40.072Z,109.10
2018-12-26T08:41:10.293Z,149.03
2018-12-26T08:43:40.597Z,159.53
2018-12-26T08:46:10.997Z,175.57
2018-12-26T08:48:41.242Z,167.13
2018-12-26T08:51:11.417Z,133.10
2018-12-26T08:53:41.642Z,139.03
2018-12-26T08:56:11.875Z,98.50
2018-12-26T08:58:42.401Z,151.53
2018-12-26T09:01:12.815Z,117.77
2018-12-26T09:03:43.181Z,91.60
2018-12-26T09:06:13.663Z,85.77
2018-12-26T09:08:45.143Z,92.43
2018-12-26T09:11:15.505Z,102.90
2018-12-26T09:13:45.941Z,109.80
2018-12-26T09:16:16.646Z,77.67
2018-12-26T09:18:46.897Z,73.63
2018-12-26T09:21:17.152Z,71.73
2018-12-26T09:23:47.439Z,55.83
2018-12-26T09:26:17.735Z,55.57
2018-12-26T09:28:48.497Z,131.80
2018-12-26T09:31:19.099Z,94.63
2018-12-26T09:33:50.957Z,103.77
2018-12-26T09:36:23.398Z,115.00
2018-12-26T09:38:54.199Z,125.80
2018-12-26T09:41:25.929Z,140.77
2018-12-26T09:43:58.690Z,114.37
2018-12-26T09:46:29.122Z,99.53
2018-12-26T09:48:59.525Z,148.57
2018-12-26T09:51:29.859Z,97.17
2018-12-26T09:54:01.365Z,97.67
2018-12-26T09:56:31.566Z,77.50
2018-12-26T09:59:01.831Z,167.07
2018-12-26T10:01:32.124Z,158.63
2018-12-26T10:04:02.345Z,131.67
2018-12-26T10:06:32.641Z,129.80
2018-12-26T10:09:03.497Z,155.30
2018-12-26T10:11:33.789Z,94.37
2018-12-26T10:14:03.899Z,96.90
2018-12-26T10:16:34.106Z,106.90
2018-12-26T10:19:04.217Z,131.57
2018-12-26T10:21:34.438Z,101.07
2018-12-26T10:24:04.732Z,86.77
2018-12-26T10:26:34.958Z,136.60
2018-12-26T10:29:05.213Z,132.77
2018-12-26T10:31:35.514Z,68.07
2018-12-26T10:34:05.724Z,94.03
2018-12-26T10:36:35.937Z,151.37
2018-12-26T10:39:07.773Z,142.93
2018-12-26T10:41:38.011Z,136.10
2018-12-26T10:44:11.677Z,82.63
2018-12-26T10:46:41.969Z,103.47
2018-12-26T10:49:12.209Z,108.60
2018-12-26T10:51:42.475Z,123.57
2018-12-26T10:54:12.734Z,133.77
2018-12-26T10:56:42.947Z,110.37
2018-12-26T10:59:13.135Z,88.73
2018-12-26T11:01:43.421Z,67.10
2018-12-26T11:04:13.636Z,85.53
2018-12-26T11:06:43.901Z,124.07
2018-12-26T11:09:14.173Z,85.37
2018-12-26T11:11:44.554Z,97.97
2018-12-26T11:14:14.925Z,173.63
2018-12-26T11:16:45.231Z,150.57
2018-12-26T11:19:15.845Z,153.67
2018-12-26T11:21:46.120Z,191.20
2018-12-26T11:24:16.414Z,207.57
2018-12-26T11:26:46.754Z,155.73
2018-12-26T11:29:18.688Z,122.63
2018-12-26T11:31:49.148Z,158.27
2018-12-26T11:34:19.306Z,135.13
2018-12-26T11:36:49.625Z,204.17
2018-12-26T11:39:19.916Z,190.20
2018-12-26T11:41:50.674Z,230.40
2018-12-26T11:44:21.439Z,247.27
2018-12-26T11:46:52.214Z,274.93
2018-12-26T11:49:22.518Z,223.07
2018-12-26T11:51:52.785Z,192.90
2018-12-26T11:54:23.063Z,261.47
2018-12-26T11:56:53.373Z,237.43
2018-12-26T11:59:27.250Z,189.07
2018-12-26T12:01:55.690Z,184.23
2018-12-26T12:04:25.856Z,151.87
2018-12-26T12:06:56.255Z,180.60
2018-12-26T12:09:26.556Z,117.30
2018-12-26T12:11:56.932Z,132.73
2018-12-26T12:14:27.238Z,122.97
2018-12-26T12:16:57.475Z,122.90
2018-12-26T12:19:27.856Z,131.03
2018-12-26T12:21:58.144Z,165.47
2018-12-26T12:24:28.442Z,131.47
2018-12-26T12:26:58.770Z,126.53
2018-12-26T12:29:35.934Z,172.90
2018-12-26T12:32:04.033Z,145.17
2018-12-26T12:34:34.267Z,155.67
2018-12-26T12:37:07.112Z,162.53
2018-12-26T12:39:37.476Z,214.47
2018-12-26T12:42:07.688Z,167.23
2018-12-26T12:44:38.288Z,111.90
2018-12-26T12:47:08.893Z,151.50
2018-12-26T12:49:39.169Z,203.90
2018-12-26T12:52:09.438Z,162.57
2018-12-26T12:54:39.865Z,144.07
2018-12-26T12:57:10.137Z,185.53
2018-12-26T12:59:44.837Z,150.73
2018-12-26T13:02:12.297Z,269.30
2018-12-26T13:04:42.575Z,151.57
2018-12-26T13:07:12.689Z,166.07
2018-12-26T13:09:42.942Z,140.10
2018-12-26T13:12:13.150Z,187.90
2018-12-26T13:14:43.604Z,143.30
2018-12-26T13:17:13.933Z,224.17
2018-12-26T13:19:44.201Z,209.50
2018-12-26T13:22:14.428Z,277.53
2018-12-26T13:24:44.720Z,159.23
2018-12-26T13:27:14.941Z,250.73
2018-12-26T13:29:53.459Z,183.50
2018-12-26T13:32:17.342Z,221.50
2018-12-26T13:34:47.590Z,237.93
2018-12-26T13:37:17.884Z,213.60
2018-12-26T13:39:48.148Z,309.90
2018-12-26T13:42:18.486Z,314.13
2018-12-26T13:44:48.799Z,155.27
2018-12-26T13:47:19.243Z,319.80
2018-12-26T13:49:49.590Z,303.63
2018-12-26T13:52:21.071Z,272.57
2018-12-26T13:54:51.462Z,353.90
2018-12-26T13:57:21.837Z,376.37
2018-12-26T13:59:52.042Z,335.37
2018-12-26T14:02:22.550Z,247.47
2018-12-26T14:04:52.812Z,299.03
2018-12-26T14:07:23.136Z,307.37
2018-12-26T14:09:53.588Z,422.23
2018-12-26T14:12:23.847Z,299.17
2018-12-26T14:14:54.046Z,142.93
2018-12-26T14:17:24.374Z,390.00
2018-12-26T14:19:54.617Z,281.50
2018-12-26T14:22:24.848Z,362.50
2018-12-26T14:24:55.134Z,432.10
2018-12-26T14:27:29.322Z,403.20
2018-12-26T14:29:57.383Z,269.77
2018-12-26T14:32:27.831Z,447.67
2018-12-26T14:34:58.155Z,599.67
2018-12-26T14:37:28.479Z,574.93
2018-12-26T14:39:58.814Z,450.80
2018-12-26T14:42:29.084Z,430.10
2018-12-26T14:44:59.277Z,350.90
2018-12-26T14:47:29.576Z,542.93
2018-12-26T14:49:59.926Z,557.57
2018-12-26T14:52:30.189Z,293.47
2018-12-26T14:55:00.549Z,488.50
2018-12-26T14:57:30.796Z,495.13
2018-12-26T15:00:01.048Z,453.03
2018-12-26T15:02:31.292Z,478.60
2018-12-26T15:05:01.683Z,521.87
2018-12-26T15:07:31.881Z,554.73
2018-12-26T15:10:02.288Z,594.30
2018-12-26T15:12:32.574Z,515.77
2018-12-26T15:15:02.762Z,457.87
2018-12-26T15:17:32.921Z,501.03
2018-12-26T15:20:03.224Z,544.70
2018-12-26T15:22:33.442Z,479.57
2018-12-26T15:25:03.704Z,372.40
2018-12-26T15:27:33.959Z,560.33
2018-12-26T15:30:05.357Z,558.80
2018-12-26T15:32:35.610Z,635.53
2018-12-26T15:35:05.922Z,438.97
2018-12-26T15:37:36.225Z,533.07
2018-12-26T15:40:07.506Z,383.00
2018-12-26T15:42:37.792Z,328.33
2018-12-26T15:45:08.114Z,439.10
2018-12-26T15:47:38.489Z,564.13
2018-12-26T15:50:09.725Z,441.57
2018-12-26T15:52:40.158Z,518.87
2018-12-26T15:55:10.654Z,561.80
2018-12-26T15:57:40.910Z,687.53
2018-12-26T16:00:11.616Z,758.73
2018-12-26T16:02:56.686Z,783.87
2018-12-26T16:05:27.095Z,632.30
2018-12-26T16:07:57.443Z,620.60
2018-12-26T16:10:27.713Z,521.90
2018-12-26T16:12:58.053Z,441.13
2018-12-26T16:15:28.374Z,467.40
2018-12-26T16:17:58.635Z,621.50
2018-12-26T16:20:28.917Z,400.33
2018-12-26T16:22:59.197Z,582.77
2018-12-26T16:25:29.489Z,604.07
2018-12-26T16:27:59.921Z,736.13
2018-12-26T16:30:30.254Z,712.10
2018-12-26T16:33:00.782Z,651.67
2018-12-26T16:35:31.696Z,712.97
2018-12-26T16:38:02.414Z,641.10
2018-12-26T16:40:32.977Z,629.57
2018-12-26T16:43:03.645Z,539.93
2018-12-26T16:45:34.752Z,550.30
2018-12-26T16:48:05.344Z,547.30
2018-12-26T16:50:36.131Z,640.47
2018-12-26T16:53:07.072Z,440.87
2018-12-26T16:55:37.344Z,601.33
2018-12-26T16:58:07.796Z,600.30
2018-12-26T17:00:39.708Z,633.20
2018-12-26T17:03:13.870Z,603.23
2018-12-26T17:05:44.185Z,674.20
2018-12-26T17:08:14.458Z,585.03
2018-12-26T17:10:44.717Z,652.67
2018-12-26T17:13:15.003Z,681.77
2018-12-26T17:15:45.250Z,500.50
2018-12-26T17:18:15.531Z,685.30
2018-12-26T17:20:45.854Z,597.80
2018-12-26T17:23:16.092Z,582.83
2018-12-26T17:25:46.202Z,473.03
2018-12-26T17:28:16.504Z,696.20
2018-12-26T17:30:46.748Z,553.17
2018-12-26T17:33:16.995Z,572.93
2018-12-26T17:35:48.932Z,764.13
2018-12-26T17:38:19.231Z,566.43
2018-12-26T17:40:49.941Z,608.77
2018-12-26T17:43:20.202Z,739.07
2018-12-26T17:45:50.706Z,751.93
2018-12-26T17:48:21.337Z,575.40
2018-12-26T17:50:52.504Z,491.97
2018-12-26T17:53:58.608Z,621.33
2018-12-26T17:56:53.542Z,637.30
2018-12-26T17:59:49.052Z,640.67
2018-12-26T18:02:32.013Z,518.00
2018-12-26T18:05:02.232Z,625.67
2018-12-26T18:07:32.547Z,714.33
2018-12-26T18:10:02.768Z,689.50
2018-12-26T18:12:33.035Z,519.83
2018-12-26T18:15:03.236Z,372.63
2018-12-26T18:17:33.502Z,293.50
2018-12-26T18:20:03.860Z,387.37
2018-12-26T18:22:34.394Z,588.47
2018-12-26T18:25:05.755Z,416.37
2018-12-26T18:27:35.957Z,416.00
2018-12-26T18:30:09.251Z,627.43
2018-12-26T18:32:39.749Z,482.53
2018-12-26T18:35:10.911Z,626.63
2018-12-26T18:37:41.221Z,356.37
2018-12-26T18:40:11.484Z,472.07
2018-12-26T18:42:41.693Z,560.00
2018-12-26T18:45:11.994Z,638.37
2018-12-26T18:47:42.281Z,620.37
2018-12-26T18:50:12.870Z,638.00
2018-12-26T18:52:43.229Z,707.70
2018-12-26T18:55:13.516Z,649.27
2018-12-26T18:57:43.837Z,532.77
2018-12-26T19:00:14.210Z,523.80
2018-12-26T19:02:44.483Z,312.90
2018-12-26T19:05:14.724Z,476.30
2018-12-26T19:07:45.125Z,568.23
2018-12-26T19:10:15.392Z,347.60
2018-12-26T19:12:45.683Z,448.63
2018-12-26T19:15:18.852Z,407.33
2018-12-26T19:17:49.116Z,505.03
2018-12-26T19:20:19.294Z,539.90
2018-12-26T19:22:49.599Z,440.10
2018-12-26T19:25:19.758Z,587.93
2018-12-26T19:27:51.811Z,343.03
2018-12-26T19:30:21.878Z,323.87
2018-12-26T19:32:52.053Z,679.10
2018-12-26T19:35:22.314Z,314.47
2018-12-26T19:37:52.540Z,638.23
2018-12-26T19:40:23.199Z,423.13
2018-12-26T19:42:53.482Z,557.93
2018-12-26T19:45:23.844Z,444.47
2018-12-26T19:47:54.144Z,395.90
2018-12-26T19:50:24.357Z,480.47
2018-12-26T19:52:54.602Z,266.73
2018-12-26T19:55:24.849Z,441.80
2018-12-26T19:57:55.129Z,285.73
2018-12-26T20:00:25.460Z,526.23
2018-12-26T20:02:55.648Z,344.67
2018-12-26T20:05:25.859Z,501.03
2018-12-26T20:07:56.173Z,395.30
2018-12-26T20:10:26.425Z,379.30
2018-12-26T20:12:56.758Z,348.90
2018-12-26T20:15:27.006Z,534.93
2018-12-26T20:17:57.292Z,503.53
2018-12-26T20:20:27.515Z,484.23
2018-12-26T20:22:58.576Z,426.60
2018-12-26T20:25:29.002Z,338.40
2018-12-26T20:27:59.276Z,621.70
2018-12-26T20:30:29.569Z,528.70
2018-12-26T20:32:59.846Z,419.70
2018-12-26T20:35:30.185Z,490.63
2018-12-26T20:38:00.568Z,603.90
2018-12-26T20:40:30.806Z,542.10
2018-12-26T20:43:01.017Z,432.63
2018-12-26T20:45:31.319Z,566.20
2018-12-26T20:48:01.581Z,530.63
2018-12-26T20:50:31.778Z,304.67
2018-12-26T20:53:02.169Z,544.17
2018-12-26T20:55:32.467Z,552.73
2018-12-26T20:58:02.798Z,448.87
2018-12-26T21:00:33.137Z,631.10
2018-12-26T21:03:03.381Z,598.77
2018-12-26T21:05:33.547Z,546.60
2018-12-26T21:08:03.837Z,447.43
2018-12-26T21:10:34.066Z,427.73
2018-12-26T21:13:04.372Z,556.90
2018-12-26T21:15:34.698Z,390.40
2018-12-26T21:18:04.978Z,557.47
2018-12-26T21:20:35.169Z,556.70
2018-12-26T21:23:05.426Z,280.33
2018-12-26T21:25:35.796Z,301.33
2018-12-26T21:28:06.051Z,291.93
2018-12-26T21:30:36.432Z,402.70
2018-12-26T21:33:06.686Z,585.37
2018-12-26T21:35:36.915Z,472.90
2018-12-26T21:38:07.220Z,550.27
2018-12-26T21:40:37.457Z,312.27
2018-12-26T21:43:07.827Z,448.37
2018-12-26T21:45:38.131Z,526.63
2018-12-26T21:48:08.389Z,239.37
2018-12-26T21:50:38.665Z,538.23
2018-12-26T21:53:08.888Z,411.27
2018-12-26T21:55:39.054Z,320.97
2018-12-26T21:58:09.315Z,332.23
2018-12-26T22:00:39.788Z,501.23
2018-12-26T22:03:10.065Z,421.07
2018-12-26T22:05:40.351Z,545.73
2018-12-26T22:08:10.661Z,654.07
2018-12-26T22:10:41.038Z,625.70
2018-12-26T22:13:11.228Z,421.80
2018-12-26T22:15:41.510Z,342.50
2018-12-26T22:18:11.821Z,656.90
2018-12-26T22:20:42.022Z,476.67
2018-12-26T22:23:12.290Z,639.40
2018-12-26T22:25:42.534Z,532.67
2018-12-26T22:28:12.807Z,546.73
2018-12-26T22:30:43.045Z,464.50
2018-12-26T22:33:13.304Z,615.37
2018-12-26T22:35:43.557Z,535.03
2018-12-26T22:38:13.969Z,444.77
2018-12-26T22:40:44.202Z,515.20
2018-12-26T22:43:14.397Z,335.90
2018-12-26T22:45:44.681Z,494.30
2018-12-26T22:48:14.987Z,461.60
2018-12-26T22:50:45.337Z,613.00
2018-12-26T22:53:15.633Z,514.27
2018-12-26T22:55:45.922Z,557.33
2018-12-26T22:58:16.167Z,570.27
2018-12-26T23:00:47.722Z,487.23
2018-12-26T23:03:17.912Z,449.87
2018-12-26T23:05:48.155Z,300.47
2018-12-26T23:08:18.461Z,516.70
2018-12-26T23:10:48.701Z,438.00
2018-12-26T23:13:19.070Z,559.13
2018-12-26T23:15:49.420Z,563.63
2018-12-26T23:18:19.694Z,455.97
2018-12-26T23:20:49.988Z,231.77
2018-12-26T23:23:20.283Z,561.67
2018-12-26T23:25:50.522Z,511.53
2018-12-26T23:28:20.765Z,564.07
2018-12-26T23:30:51.234Z,370.20
2018-12-26T23:33:21.577Z,548.70
2018-12-26T23:35:51.873Z,629.57
2018-12-26T23:38:22.222Z,599.57
2018-12-26T23:40:52.505Z,526.03
2018-12-26T23:43:22.956Z,320.10
2018-12-26T23:45:53.269Z,580.20
2018-12-26T23:48:23.515Z,602.53
2018-12-26T23:50:53.778Z,439.40
2018-12-26T23:53:24.021Z,566.37
2018-12-26T23:55:54.366Z,484.30
2018-12-26T23:58:24.691Z,579.90
